Time;durP1;ratioP1;P1;durP2;ratioP2;P2;SDS_P1;SDS_P2;PMS_P1;PMS_P2;Temp;Humidity;BMP_temperature;BMP_pressure;BME280_temperature;BME280_humidity;BME280_pressure;Samples;Min_cycle;Max_cycle;Signal;HPM_P1;HPM_P2
2023/04/02 00:04:21;;;;;;;1.15;1.05;;;;;;;17.20;54.01;101027.66;20741295;28;20044;-81
2023/04/02 00:14:32;;;;;;;1.20;1.10;;;;;;;17.19;53.65;101042.09;20733319;28;20138;-81
2023/04/02 00:24:34;;;;;;;1.70;1.20;;;;;;;17.23;53.39;101070.47;20739030;28;20137;-81
2023/04/02 00:34:36;;;;;;;1.27;0.93;;;;;;;17.23;53.23;101081.22;20746136;28;20049;-81
2023/04/02 00:44:42;;;;;;;1.60;1.00;;;;;;;17.20;53.09;101104.81;20740043;28;20054;-81
2023/04/02 00:54:49;;;;;;;1.35;1.10;;;;;;;17.05;52.83;101096.19;20738376;28;20046;-81
2023/04/02 01:04:56;;;;;;;1.80;1.13;;;;;;;17.22;52.61;101140.53;20722067;28;20077;-81
2023/04/02 01:15:40;;;;;;;3.03;1.35;;;;;;;17.07;52.35;101129.19;20702365;28;20038;-81
2023/04/02 01:26:11;;;;;;;1.98;1.27;;;;;;;17.15;52.25;101166.22;20718865;28;20073;-81
2023/04/02 01:36:26;;;;;;;1.30;0.90;;;;;;;17.13;52.09;101192.41;20748495;28;20069;-81
2023/04/02 01:46:30;;;;;;;1.45;0.95;;;;;;;17.20;51.77;101212.44;20751528;28;20108;-81
2023/04/02 01:56:34;;;;;;;1.77;1.10;;;;;;;17.19;51.62;101243.03;20739007;28;20045;-81
2023/04/02 02:06:36;;;;;;;1.30;1.00;;;;;;;17.18;51.25;101258.28;20749097;28;20054;-81
2023/04/02 02:16:40;;;;;;;1.35;0.85;;;;;;;17.19;51.13;101278.00;20754324;28;20045;-80
2023/04/02 02:26:43;;;;;;;2.40;1.00;;;;;;;17.13;50.75;101294.63;20744049;28;20453;-81
2023/04/02 02:36:54;;;;;;;0.98;0.90;;;;;;;17.15;50.82;101315.03;20733442;28;20096;-81
2023/04/02 02:47:02;;;;;;;1.58;1.05;;;;;;;17.03;50.54;101316.00;20744318;28;20053;-81
2023/04/02 02:57:07;;;;;;;1.13;0.82;;;;;;;17.10;50.46;101336.94;20736766;28;20054;-81
2023/04/02 03:07:09;;;;;;;;;;;;;;;17.15;50.19;101358.09;20759472;28;20046;-81
2023/04/02 03:17:17;;;;;;;1.15;0.80;;;;;;;17.15;50.23;101379.59;20745958;28;19922;-81
2023/04/02 03:27:30;;;;;;;1.50;0.80;;;;;;;17.18;50.29;101402.75;20747237;28;20056;-81
2023/04/02 03:37:39;;;;;;;1.27;0.80;;;;;;;17.03;50.07;101385.94;20740885;28;20406;-81
2023/04/02 03:47:46;;;;;;;0.90;0.70;;;;;;;17.27;49.80;101438.84;20757470;28;20561;-81
2023/04/02 03:58:02;;;;;;;1.33;0.60;;;;;;;17.30;49.62;101463.66;20726129;28;20034;-81
2023/04/02 04:08:11;;;;;;;1.50;0.82;;;;;;;17.34;49.52;101483.16;20740819;28;20064;-81
2023/04/02 04:18:20;;;;;;;1.00;0.70;;;;;;;17.38;49.30;101498.06;20724340;28;20078;-81
2023/04/02 04:28:40;;;;;;;1.48;0.90;;;;;;;17.42;49.06;101515.69;20731711;28;20054;-81
2023/04/02 04:38:48;;;;;;;1.10;0.73;;;;;;;17.39;48.67;101521.31;20752179;28;20046;-81
2023/04/02 04:49:01;;;;;;;1.15;0.73;;;;;;;17.51;48.31;101558.06;20747229;28;20050;-81
2023/04/02 04:59:15;;;;;;;1.75;1.02;;;;;;;17.54;48.21;101590.13;20752542;28;20422;-81
2023/04/02 05:09:39;;;;;;;0.82;0.50;;;;;;;17.58;47.97;101608.72;20747223;28;20049;-81
2023/04/02 05:19:55;;;;;;;0.82;0.60;;;;;;;17.62;47.86;101638.00;20755890;28;20069;-81
2023/04/02 05:30:06;;;;;;;1.25;0.65;;;;;;;17.67;47.60;101653.81;20736376;28;20081;-81
2023/04/02 05:40:22;;;;;;;1.77;1.05;;;;;;;17.72;47.35;101677.69;20752391;28;20593;-81
2023/04/02 05:50:36;;;;;;;0.65;0.45;;;;;;;17.76;47.28;101701.59;20735142;28;20185;-81
2023/04/02 06:00:50;;;;;;;0.55;0.50;;;;;;;17.79;47.08;101722.91;20727550;28;20050;-82
2023/04/02 06:11:07;;;;;;;0.82;0.70;;;;;;;17.67;46.76;101715.72;20721107;28;20046;-81
2023/04/02 06:21:13;;;;;;;0.70;0.43;;;;;;;17.89;46.77;101768.84;20734192;28;20129;-81
2023/04/02 06:31:29;;;;;;;1.35;0.60;;;;;;;17.94;46.52;101801.72;20774330;28;20054;-81
2023/04/02 06:41:31;;;;;;;0.85;0.40;;;;;;;17.85;46.37;101804.22;20738384;28;20046;-81
2023/04/02 06:51:53;;;;;;;2.03;0.47;;;;;;;18.06;46.26;101847.59;20732744;28;20062;-81
2023/04/02 07:02:00;;;;;;;1.33;0.57;;;;;;;18.09;46.50;101868.94;20731544;28;20516;-79
2023/04/02 07:12:10;;;;;;;1.67;0.60;;;;;;;18.05;46.21;101870.97;20743827;28;20144;-80
2023/04/02 07:22:12;;;;;;;1.02;0.50;;;;;;;18.03;46.02;101870.25;20780523;28;20056;-80
2023/04/02 07:32:18;;;;;;;0.98;0.47;;;;;;;18.21;45.78;101889.56;20793878;28;20065;-80
2023/04/02 07:42:20;;;;;;;0.68;0.40;;;;;;;18.17;45.57;101892.63;20775084;28;20038;-80
2023/04/02 07:52:21;;;;;;;1.15;0.32;;;;;;;18.16;45.58;101904.38;20739426;28;20048;-80
2023/04/02 08:02:23;;;;;;;0.50;0.47;;;;;;;18.29;45.27;101942.03;20745789;28;20083;-81
2023/04/02 08:12:25;;;;;;;1.80;0.90;;;;;;;18.31;45.23;101946.38;20745709;28;20073;-81
2023/04/02 08:22:27;;;;;;;2.00;0.60;;;;;;;18.38;45.36;101960.25;20743150;28;20606;-81
2023/04/02 08:32:29;;;;;;;1.23;0.65;;;;;;;18.29;45.16;101969.88;20743668;28;20068;-81
2023/04/02 08:43:02;;;;;;;0.93;0.73;;;;;;;18.38;45.27;102004.25;20748019;28;20376;-80
2023/04/02 08:53:09;;;;;;;1.13;0.63;;;;;;;18.33;44.99;102001.03;20755242;28;20068;-81
2023/04/02 09:03:19;;;;;;;1.08;0.50;;;;;;;18.38;44.79;102024.97;20756631;28;20508;-81
2023/04/02 09:13:24;;;;;;;1.10;0.57;;;;;;;18.33;45.02;102036.06;20758739;28;20517;-81
2023/04/02 09:23:26;;;;;;;1.00;0.55;;;;;;;18.24;45.10;102044.84;20752758;28;20054;-81
2023/04/02 09:33:55;;;;;;;2.30;0.63;;;;;;;18.30;44.93;102068.66;20753304;28;20041;-81
2023/04/02 09:44:26;;;;;;;0.82;0.50;;;;;;;18.28;44.88;102089.47;20752620;28;20442;-81
2023/04/02 09:54:28;;;;;;;0.50;0.50;;;;;;;18.26;44.85;102096.78;20750641;28;20075;-81
2023/04/02 10:04:47;;;;;;;0.68;0.40;;;;;;;18.22;44.96;102104.22;20749635;28;20112;-81
2023/04/02 10:14:50;;;;;;;1.10;0.50;;;;;;;18.20;44.96;102113.41;20747750;28;20053;-81
2023/04/02 10:24:51;;;;;;;0.68;0.45;;;;;;;18.20;44.73;102113.41;20747262;28;20050;-81
2023/04/02 10:34:59;;;;;;;1.05;0.68;;;;;;;18.10;44.68;102105.94;20747763;28;20045;-81
2023/04/02 10:45:32;;;;;;;1.05;0.50;;;;;;;18.17;44.68;102141.44;20748807;28;20041;-81
2023/04/02 10:55:41;;;;;;;1.10;0.50;;;;;;;18.17;44.86;102156.75;20738371;28;20052;-81
2023/04/02 11:05:47;;;;;;;1.02;0.55;;;;;;;18.03;44.67;102150.47;20733270;28;20056;-81
2023/04/02 11:15:49;;;;;;;0.68;0.30;;;;;;;18.13;44.76;102176.81;20755331;28;20044;-81
2023/04/02 11:25:51;;;;;;;1.65;0.70;;;;;;;18.04;44.65;102173.75;20744177;28;20544;-81
2023/04/02 11:35:53;;;;;;;0.70;0.40;;;;;;;18.11;44.52;102195.75;20741179;28;20046;-81
2023/04/02 11:45:56;;;;;;;1.02;0.30;;;;;;;18.10;44.37;102204.81;20739567;28;20057;-81
2023/04/02 11:56:16;;;;;;;0.60;0.40;;;;;;;18.03;44.65;102190.88;20737163;28;20052;-81
2023/04/02 12:06:47;;;;;;;0.77;0.43;;;;;;;18.07;44.38;102199.66;20742266;28;20126;-81
2023/04/02 12:16:49;;;;;;;1.30;0.63;;;;;;;18.06;44.53;102228.41;20735704;28;20056;-81
2023/04/02 12:27:21;;;;;;;0.35;0.30;;;;;;;18.05;44.39;102229.38;20722922;28;20060;-80
2023/04/02 12:37:28;;;;;;;1.08;0.45;;;;;;;18.04;44.34;102233.03;20735535;28;20547;-81
2023/04/02 12:47:30;;;;;;;1.08;0.50;;;;;;;18.03;44.42;102239.41;20726975;28;20395;-81
2023/04/02 12:57:34;;;;;;;0.88;0.43;;;;;;;18.03;44.34;102236.69;20730288;28;20042;-81
2023/04/02 13:07:36;;;;;;;;;;;;;;;18.03;44.42;102239.41;20741061;28;20128;-80
2023/04/02 13:17:42;;;;;;;1.92;0.40;;;;;;;18.01;44.47;102254.81;20738560;28;20059;-81
2023/04/02 13:27:44;;;;;;;0.30;0.30;;;;;;;18.00;44.49;102255.75;20741341;28;20623;-80
2023/04/02 13:37:46;;;;;;;0.57;0.30;;;;;;;18.00;44.59;102257.59;20751712;28;20054;-80
2023/04/02 13:47:48;;;;;;;0.40;0.30;;;;;;;18.00;44.47;102258.44;20752400;28;20076;-81
2023/04/02 13:57:50;;;;;;;0.32;0.22;;;;;;;17.99;44.61;102270.19;20750420;28;20048;-80
2023/04/02 14:07:52;;;;;;;1.13;0.40;;;;;;;17.98;44.37;102288.19;20749481;28;20129;-81
2023/04/02 14:18:14;;;;;;;1.00;0.30;;;;;;;17.97;44.49;102280.19;20751150;28;20088;-81
2023/04/02 14:28:26;;;;;;;0.45;0.40;;;;;;;17.95;44.37;102290.22;20741403;28;20065;-81
2023/04/02 14:38:36;;;;;;;0.70;0.40;;;;;;;17.95;44.25;102295.59;20745793;28;20402;-80
2023/04/02 14:48:53;;;;;;;0.40;0.40;;;;;;;17.93;44.35;102294.84;20746534;28;20045;-80
2023/04/02 14:59:31;;;;;;;0.63;0.30;;;;;;;17.93;44.27;102305.63;20749078;28;20473;-81
2023/04/02 15:09:41;;;;;;;0.50;0.30;;;;;;;17.91;44.21;102299.47;20742240;28;20054;-80
2023/04/02 15:19:43;;;;;;;0.30;0.30;;;;;;;17.90;44.13;102311.22;20741764;28;20037;-80
2023/04/02 15:30:10;;;;;;;0.55;0.30;;;;;;;17.89;44.21;102326.50;20740169;28;20570;-80
2023/04/02 15:40:24;;;;;;;0.40;0.30;;;;;;;17.43;44.08;102260.38;20734740;28;20395;-81
2023/04/02 15:50:35;;;;;;;0.40;0.40;;;;;;;17.78;44.14;102323.66;20718688;28;20046;-81
2023/04/02 16:00:47;;;;;;;0.82;0.30;;;;;;;17.86;43.89;102348.25;20736075;28;20084;-79
2023/04/02 16:10:49;;;;;;;0.52;0.20;;;;;;;17.86;44.00;102352.81;20742637;28;20038;-79
2023/04/02 16:20:52;;;;;;;0.50;0.40;;;;;;;17.75;43.95;102356.19;20738119;28;20042;-80
2023/04/02 16:31:02;;;;;;;0.60;0.30;;;;;;;17.83;43.92;102386.19;20726026;28;20053;-81
2023/04/02 16:41:22;;;;;;;0.57;0.30;;;;;;;17.81;43.64;102397.06;20712979;28;20046;-79
2023/04/02 16:51:42;;;;;;;0.30;0.30;;;;;;;17.81;43.62;102404.28;20698787;28;20050;-79
2023/04/02 17:02:24;;;;;;;0.38;0.30;;;;;;;17.70;43.76;102410.38;20706025;28;20398;-81
2023/04/02 17:12:46;;;;;;;0.20;0.20;;;;;;;17.73;44.11;102429.03;20752229;28;20042;-81
2023/04/02 17:22:49;;;;;;;0.32;0.32;;;;;;;17.75;43.63;102448.66;20704586;28;21580;-83
2023/04/02 17:32:51;;;;;;;0.20;0.20;;;;;;;17.75;43.57;102459.44;20731178;28;20528;-80
2023/04/02 17:43:25;;;;;;;0.57;0.40;;;;;;;17.73;43.50;102484.72;20712315;28;20082;-83
2023/04/02 17:53:41;;;;;;;0.50;0.30;;;;;;;17.71;43.63;102495.59;20718054;28;20375;-82
2023/04/02 18:04:05;;;;;;;0.30;0.30;;;;;;;17.69;43.51;102511.00;20706378;28;20052;-87
2023/04/02 18:14:33;;;;;;;0.30;0.30;;;;;;;17.67;43.48;102521.84;20716247;28;20042;-89
2023/04/02 18:24:49;;;;;;;0.47;0.47;;;;;;;17.65;43.35;102528.28;20744395;28;20054;-89
2023/04/02 18:34:57;;;;;;;0.70;0.50;;;;;;;17.64;43.29;102553.47;20735236;28;20056;-90
2023/04/02 18:45:21;;;;;;;0.57;0.30;;;;;;;17.63;43.22;102574.19;20736245;28;20050;-84
2023/04/02 18:55:30;;;;;;;0.47;0.30;;;;;;;17.61;43.20;102596.75;20743938;28;20043;-83
2023/04/02 19:05:39;;;;;;;0.70;0.30;;;;;;;17.61;43.20;102604.84;20715075;28;20386;-83
2023/04/02 19:15:44;;;;;;;0.52;0.30;;;;;;;17.59;43.04;102626.50;20731143;28;20057;-83
2023/04/02 19:26:07;;;;;;;0.57;0.33;;;;;;;17.57;43.00;102625.72;20745378;28;20061;-83
2023/04/02 19:36:28;;;;;;;0.63;0.40;;;;;;;17.55;42.87;102635.72;20742481;28;20046;-83
2023/04/02 19:46:30;;;;;;;0.35;0.30;;;;;;;17.55;42.94;102654.56;20737446;28;20494;-83
2023/04/02 19:56:31;;;;;;;0.55;0.40;;;;;;;17.50;42.94;102654.81;20741162;28;20045;-83
2023/04/02 20:06:33;;;;;;;0.57;0.30;;;;;;;17.52;42.97;102671.75;20740347;28;20038;-83
2023/04/02 20:16:37;;;;;;;0.40;0.40;;;;;;;17.52;43.04;102671.75;20719112;28;20049;-83
2023/04/02 20:26:39;;;;;;;0.85;0.60;;;;;;;17.42;42.85;102675.97;20739114;28;20125;-83
2023/04/02 20:36:41;;;;;;;0.40;0.40;;;;;;;17.24;42.98;102665.31;20740730;28;20497;-83
2023/04/02 20:46:43;;;;;;;0.30;0.30;;;;;;;17.49;42.91;102716.88;20739986;28;20362;-82
2023/04/02 20:56:44;;;;;;;0.93;0.50;;;;;;;17.39;42.96;102721.91;20740502;28;20050;-83
2023/04/02 21:06:47;;;;;;;0.47;0.40;;;;;;;17.48;42.90;102745.59;20751113;28;20053;-82
2023/04/02 21:16:49;;;;;;;0.50;0.50;;;;;;;17.34;42.92;102740.16;20743022;28;20266;-83
2023/04/02 21:26:50;;;;;;;1.35;0.63;;;;;;;17.45;42.84;102770.03;20737923;28;20058;-83
2023/04/02 21:36:52;;;;;;;0.82;0.57;;;;;;;17.36;42.72;102763.31;20738488;28;20049;-83
2023/04/02 21:46:54;;;;;;;0.30;0.30;;;;;;;17.43;42.77;102788.09;20724174;28;20053;-83
2023/04/02 21:56:56;;;;;;;0.70;0.38;;;;;;;17.42;42.64;102802.50;20752704;28;20128;-83
2023/04/02 22:06:58;;;;;;;0.75;0.40;;;;;;;17.34;42.76;102796.69;20754341;28;20038;-83
2023/04/02 22:17:00;;;;;;;1.50;0.60;;;;;;;17.41;42.59;102808.84;20746565;28;20042;-83
2023/04/02 22:27:02;;;;;;;0.32;0.32;;;;;;;17.40;42.56;102824.13;20749725;28;20046;-83
2023/04/02 22:37:03;;;;;;;0.80;0.50;;;;;;;17.37;42.52;102820.75;20736409;28;20120;-83
2023/04/02 22:47:05;;;;;;;1.70;0.50;;;;;;;17.28;42.41;102814.03;20747005;28;20092;-83
2023/04/02 22:57:07;;;;;;;1.17;0.40;;;;;;;17.38;42.39;102847.56;20742920;28;20038;-82
2023/04/02 23:07:09;;;;;;;0.80;0.60;;;;;;;17.33;42.44;102838.03;20742115;28;20124;-83
2023/04/02 23:17:10;;;;;;;0.90;0.50;;;;;;;17.36;42.25;102856.69;20744926;28;20050;-83
2023/04/02 23:27:12;;;;;;;1.40;0.38;;;;;;;17.36;42.27;102862.94;20745825;28;20050;-83
2023/04/02 23:37:15;;;;;;;0.40;0.40;;;;;;;17.36;42.27;102860.25;20743707;28;20375;-83
2023/04/02 23:47:17;;;;;;;0.82;0.35;;;;;;;17.33;42.43;102859.56;20734403;28;20060;-83
2023/04/02 23:57:19;;;;;;;0.45;0.35;;;;;;;17.34;42.09;102866.69;20739854;28;20734;-83
